sensor_id;sensor_type;location;lat;lon;timestamp;P1;durP1;ratioP1;P2;durP2;ratioP2
65581;SDS011;52231;40.090;18.348;2022-09-01T00:00:08;14.25;;;7.15;;
65581;SDS011;52231;40.090;18.348;2022-09-01T00:02:40;12.25;;;7.00;;
65581;SDS011;52231;40.090;18.348;2022-09-01T00:05:09;15.80;;;7.43;;
65581;SDS011;52231;40.090;18.348;2022-09-01T00:07:39;13.00;;;6.75;;
65581;SDS011;52231;40.090;18.348;2022-09-01T00:10:07;14.13;;;6.60;;
65581;SDS011;52231;40.090;18.348;2022-09-01T00:12:37;13.45;;;7.43;;
65581;SDS011;52231;40.090;18.348;2022-09-01T00:15:06;16.20;;;7.35;;
65581;SDS011;52231;40.090;18.348;2022-09-01T00:17:36;12.68;;;6.78;;
65581;SDS011;52231;40.090;18.348;2022-09-01T00:20:05;13.60;;;7.10;;
65581;SDS011;52231;40.090;18.348;2022-09-01T00:22:33;15.35;;;7.22;;
65581;SDS011;52231;40.090;18.348;2022-09-01T00:27:30;13.73;;;7.10;;
65581;SDS011;52231;40.090;18.348;2022-09-01T00:29:59;14.00;;;7.60;;
65581;SDS011;52231;40.090;18.348;2022-09-01T00:32:27;13.63;;;7.72;;
65581;SDS011;52231;40.090;18.348;2022-09-01T00:34:56;13.50;;;6.90;;
65581;SDS011;52231;40.090;18.348;2022-09-01T00:37:25;15.35;;;7.85;;
65581;SDS011;52231;40.090;18.348;2022-09-01T00:39:53;13.75;;;7.63;;
65581;SDS011;52231;40.090;18.348;2022-09-01T00:44:49;16.00;;;8.18;;
65581;SDS011;52231;40.090;18.348;2022-09-01T00:47:18;14.73;;;7.65;;
65581;SDS011;52231;40.090;18.348;2022-09-01T00:49:47;15.00;;;8.02;;
65581;SDS011;52231;40.090;18.348;2022-09-01T00:52:24;13.50;;;7.38;;
65581;SDS011;52231;40.090;18.348;2022-09-01T00:56:42;15.02;;;7.80;;
65581;SDS011;52231;40.090;18.348;2022-09-01T00:59:12;16.10;;;7.70;;
65581;SDS011;52231;40.090;18.348;2022-09-01T01:01:42;13.40;;;7.43;;
65581;SDS011;52231;40.090;18.348;2022-09-01T01:04:11;17.88;;;8.27;;
65581;SDS011;52231;40.090;18.348;2022-09-01T01:06:43;13.45;;;7.45;;
65581;SDS011;52231;40.090;18.348;2022-09-01T01:09:17;13.38;;;7.80;;
65581;SDS011;52231;40.090;18.348;2022-09-01T01:11:47;15.10;;;7.60;;
65581;SDS011;52231;40.090;18.348;2022-09-01T01:14:15;13.57;;;7.20;;
65581;SDS011;52231;40.090;18.348;2022-09-01T01:16:44;14.20;;;7.28;;
65581;SDS011;52231;40.090;18.348;2022-09-01T01:19:17;17.05;;;7.72;;
65581;SDS011;52231;40.090;18.348;2022-09-01T01:22:26;17.15;;;9.43;;
65581;SDS011;52231;40.090;18.348;2022-09-01T01:25:38;13.63;;;8.15;;
65581;SDS011;52231;40.090;18.348;2022-09-01T01:28:11;15.98;;;7.82;;
65581;SDS011;52231;40.090;18.348;2022-09-01T01:30:51;14.63;;;7.85;;
65581;SDS011;52231;40.090;18.348;2022-09-01T01:33:28;15.35;;;7.82;;
65581;SDS011;52231;40.090;18.348;2022-09-01T01:39:42;15.25;;;8.40;;
65581;SDS011;52231;40.090;18.348;2022-09-01T01:42:11;15.07;;;8.75;;
65581;SDS011;52231;40.090;18.348;2022-09-01T01:47:09;14.93;;;8.77;;
65581;SDS011;52231;40.090;18.348;2022-09-01T01:49:39;17.70;;;9.48;;
65581;SDS011;52231;40.090;18.348;2022-09-01T01:52:11;18.52;;;9.27;;
65581;SDS011;52231;40.090;18.348;2022-09-01T01:54:44;16.10;;;9.13;;
65581;SDS011;52231;40.090;18.348;2022-09-01T01:57:13;15.50;;;8.77;;
65581;SDS011;52231;40.090;18.348;2022-09-01T01:59:44;15.77;;;9.05;;
65581;SDS011;52231;40.090;18.348;2022-09-01T02:02:12;17.20;;;9.43;;
65581;SDS011;52231;40.090;18.348;2022-09-01T02:07:12;17.23;;;8.77;;
65581;SDS011;52231;40.090;18.348;2022-09-01T02:09:41;13.70;;;8.52;;
65581;SDS011;52231;40.090;18.348;2022-09-01T02:12:14;15.07;;;9.18;;
65581;SDS011;52231;40.090;18.348;2022-09-01T02:14:45;15.50;;;9.65;;
65581;SDS011;52231;40.090;18.348;2022-09-01T02:17:15;15.52;;;9.23;;
65581;SDS011;52231;40.090;18.348;2022-09-01T02:19:45;16.75;;;9.30;;
65581;SDS011;52231;40.090;18.348;2022-09-01T02:22:32;17.20;;;9.45;;
65581;SDS011;52231;40.090;18.348;2022-09-01T02:25:00;17.60;;;10.38;;
65581;SDS011;52231;40.090;18.348;2022-09-01T02:27:28;15.80;;;9.65;;
65581;SDS011;52231;40.090;18.348;2022-09-01T02:29:56;15.52;;;9.13;;
65581;SDS011;52231;40.090;18.348;2022-09-01T02:32:25;16.23;;;9.52;;
65581;SDS011;52231;40.090;18.348;2022-09-01T02:37:47;15.68;;;9.30;;
65581;SDS011;52231;40.090;18.348;2022-09-01T02:40:21;14.68;;;9.13;;
65581;SDS011;52231;40.090;18.348;2022-09-01T02:45:21;14.18;;;8.68;;
65581;SDS011;52231;40.090;18.348;2022-09-01T02:47:50;15.95;;;9.20;;
65581;SDS011;52231;40.090;18.348;2022-09-01T02:50:23;16.98;;;9.82;;
65581;SDS011;52231;40.090;18.348;2022-09-01T02:57:40;15.52;;;8.85;;
65581;SDS011;52231;40.090;18.348;2022-09-01T03:00:10;15.82;;;8.45;;
65581;SDS011;52231;40.090;18.348;2022-09-01T03:02:48;15.52;;;8.60;;
65581;SDS011;52231;40.090;18.348;2022-09-01T03:05:20;15.02;;;9.20;;
65581;SDS011;52231;40.090;18.348;2022-09-01T03:07:54;15.18;;;9.18;;
65581;SDS011;52231;40.090;18.348;2022-09-01T03:10:25;16.17;;;8.65;;
65581;SDS011;52231;40.090;18.348;2022-09-01T03:13:00;16.52;;;9.32;;
65581;SDS011;52231;40.090;18.348;2022-09-01T03:15:30;17.10;;;9.40;;
65581;SDS011;52231;40.090;18.348;2022-09-01T03:18:01;15.95;;;9.10;;
65581;SDS011;52231;40.090;18.348;2022-09-01T03:20:32;15.85;;;9.18;;
65581;SDS011;52231;40.090;18.348;2022-09-01T03:23:03;16.38;;;9.13;;
65581;SDS011;52231;40.090;18.348;2022-09-01T03:25:35;16.08;;;9.20;;
65581;SDS011;52231;40.090;18.348;2022-09-01T03:28:07;15.50;;;8.25;;
65581;SDS011;52231;40.090;18.348;2022-09-01T03:31:08;16.02;;;8.30;;
65581;SDS011;52231;40.090;18.348;2022-09-01T03:33:37;14.63;;;8.43;;
65581;SDS011;52231;40.090;18.348;2022-09-01T03:36:11;15.73;;;8.50;;
65581;SDS011;52231;40.090;18.348;2022-09-01T03:38:49;12.45;;;7.40;;
65581;SDS011;52231;40.090;18.348;2022-09-01T03:41:20;13.70;;;8.25;;
65581;SDS011;52231;40.090;18.348;2022-09-01T03:43:55;12.95;;;7.60;;
65581;SDS011;52231;40.090;18.348;2022-09-01T03:47:14;16.98;;;8.15;;
65581;SDS011;52231;40.090;18.348;2022-09-01T03:49:44;14.25;;;8.20;;
65581;SDS011;52231;40.090;18.348;2022-09-01T03:52:14;14.00;;;8.10;;
65581;SDS011;52231;40.090;18.348;2022-09-01T03:54:44;13.85;;;8.43;;
65581;SDS011;52231;40.090;18.348;2022-09-01T03:57:14;14.95;;;8.35;;
65581;SDS011;52231;40.090;18.348;2022-09-01T03:59:42;17.48;;;8.75;;
65581;SDS011;52231;40.090;18.348;2022-09-01T04:02:12;15.15;;;8.60;;
65581;SDS011;52231;40.090;18.348;2022-09-01T04:04:41;15.02;;;8.70;;
65581;SDS011;52231;40.090;18.348;2022-09-01T04:07:09;16.42;;;8.55;;
65581;SDS011;52231;40.090;18.348;2022-09-01T04:09:37;19.02;;;9.52;;
65581;SDS011;52231;40.090;18.348;2022-09-01T04:12:06;15.43;;;9.25;;
65581;SDS011;52231;40.090;18.348;2022-09-01T04:14:38;16.05;;;9.07;;
65581;SDS011;52231;40.090;18.348;2022-09-01T04:17:06;15.43;;;9.10;;
65581;SDS011;52231;40.090;18.348;2022-09-01T04:20:14;18.25;;;9.45;;
65581;SDS011;52231;40.090;18.348;2022-09-01T04:22:47;14.13;;;8.52;;
65581;SDS011;52231;40.090;18.348;2022-09-01T04:25:17;13.93;;;8.10;;
65581;SDS011;52231;40.090;18.348;2022-09-01T04:27:54;14.63;;;8.32;;
65581;SDS011;52231;40.090;18.348;2022-09-01T04:30:25;13.77;;;8.32;;
65581;SDS011;52231;40.090;18.348;2022-09-01T04:35:28;15.77;;;8.48;;
65581;SDS011;52231;40.090;18.348;2022-09-01T04:37:59;15.60;;;8.82;;
65581;SDS011;52231;40.090;18.348;2022-09-01T04:40:37;16.27;;;8.15;;
65581;SDS011;52231;40.090;18.348;2022-09-01T04:43:09;14.35;;;8.25;;
65581;SDS011;52231;40.090;18.348;2022-09-01T04:45:44;14.75;;;8.05;;
65581;SDS011;52231;40.090;18.348;2022-09-01T04:48:13;14.93;;;8.18;;
65581;SDS011;52231;40.090;18.348;2022-09-01T04:50:41;14.52;;;7.45;;
65581;SDS011;52231;40.090;18.348;2022-09-01T04:53:22;14.38;;;7.70;;
65581;SDS011;52231;40.090;18.348;2022-09-01T04:55:54;14.02;;;7.78;;
65581;SDS011;52231;40.090;18.348;2022-09-01T04:58:27;13.10;;;7.40;;
65581;SDS011;52231;40.090;18.348;2022-09-01T05:00:57;13.40;;;7.65;;
65581;SDS011;52231;40.090;18.348;2022-09-01T05:03:35;13.90;;;7.45;;
65581;SDS011;52231;40.090;18.348;2022-09-01T05:06:17;13.07;;;7.03;;
65581;SDS011;52231;40.090;18.348;2022-09-01T05:08:55;12.43;;;7.88;;
65581;SDS011;52231;40.090;18.348;2022-09-01T05:11:46;13.80;;;7.78;;
65581;SDS011;52231;40.090;18.348;2022-09-01T05:14:19;14.75;;;6.95;;
65581;SDS011;52231;40.090;18.348;2022-09-01T05:16:51;11.27;;;7.15;;
65581;SDS011;52231;40.090;18.348;2022-09-01T05:19:28;12.80;;;6.03;;
65581;SDS011;52231;40.090;18.348;2022-09-01T05:21:59;10.02;;;6.07;;
65581;SDS011;52231;40.090;18.348;2022-09-01T05:24:29;13.05;;;5.72;;
65581;SDS011;52231;40.090;18.348;2022-09-01T05:27:06;11.38;;;6.10;;
65581;SDS011;52231;40.090;18.348;2022-09-01T05:29:36;9.98;;;5.57;;
65581;SDS011;52231;40.090;18.348;2022-09-01T05:32:06;11.20;;;5.97;;
65581;SDS011;52231;40.090;18.348;2022-09-01T05:34:39;11.55;;;5.65;;
65581;SDS011;52231;40.090;18.348;2022-09-01T05:37:09;13.70;;;7.50;;
65581;SDS011;52231;40.090;18.348;2022-09-01T05:39:40;18.05;;;10.15;;
65581;SDS011;52231;40.090;18.348;2022-09-01T05:42:09;12.70;;;7.38;;
65581;SDS011;52231;40.090;18.348;2022-09-01T05:44:38;12.88;;;7.00;;
65581;SDS011;52231;40.090;18.348;2022-09-01T05:49:42;13.18;;;5.82;;
65581;SDS011;52231;40.090;18.348;2022-09-01T05:52:10;11.57;;;5.28;;
65581;SDS011;52231;40.090;18.348;2022-09-01T05:54:39;14.63;;;7.55;;
65581;SDS011;52231;40.090;18.348;2022-09-01T05:57:07;12.45;;;6.18;;
65581;SDS011;52231;40.090;18.348;2022-09-01T05:59:50;11.50;;;6.15;;
65581;SDS011;52231;40.090;18.348;2022-09-01T06:02:22;11.73;;;6.22;;
65581;SDS011;52231;40.090;18.348;2022-09-01T06:04:53;10.40;;;5.82;;
65581;SDS011;52231;40.090;18.348;2022-09-01T06:07:28;12.93;;;6.25;;
65581;SDS011;52231;40.090;18.348;2022-09-01T06:09:59;10.15;;;5.13;;
65581;SDS011;52231;40.090;18.348;2022-09-01T06:12:27;11.13;;;5.13;;
65581;SDS011;52231;40.090;18.348;2022-09-01T06:14:56;10.27;;;5.07;;
65581;SDS011;52231;40.090;18.348;2022-09-01T06:17:26;10.45;;;5.32;;
65581;SDS011;52231;40.090;18.348;2022-09-01T06:20:01;10.82;;;5.90;;
65581;SDS011;52231;40.090;18.348;2022-09-01T06:22:38;13.15;;;6.47;;
65581;SDS011;52231;40.090;18.348;2022-09-01T06:25:08;14.68;;;5.75;;
65581;SDS011;52231;40.090;18.348;2022-09-01T06:27:40;10.57;;;6.05;;
65581;SDS011;52231;40.090;18.348;2022-09-01T06:30:11;11.32;;;5.47;;
65581;SDS011;52231;40.090;18.348;2022-09-01T06:33:09;8.93;;;4.40;;
65581;SDS011;52231;40.090;18.348;2022-09-01T06:35:45;8.73;;;4.38;;
65581;SDS011;52231;40.090;18.348;2022-09-01T06:38:17;7.57;;;4.03;;
65581;SDS011;52231;40.090;18.348;2022-09-01T06:40:48;10.80;;;3.83;;
65581;SDS011;52231;40.090;18.348;2022-09-01T06:43:16;8.38;;;4.13;;
65581;SDS011;52231;40.090;18.348;2022-09-01T06:45:47;7.60;;;3.65;;
65581;SDS011;52231;40.090;18.348;2022-09-01T06:48:22;8.63;;;3.55;;
65581;SDS011;52231;40.090;18.348;2022-09-01T06:51:00;8.65;;;3.47;;
65581;SDS011;52231;40.090;18.348;2022-09-01T06:56:28;5.30;;;2.85;;
65581;SDS011;52231;40.090;18.348;2022-09-01T06:59:00;6.65;;;2.85;;
65581;SDS011;52231;40.090;18.348;2022-09-01T07:01:34;6.90;;;3.00;;
65581;SDS011;52231;40.090;18.348;2022-09-01T07:04:05;6.10;;;2.78;;
65581;SDS011;52231;40.090;18.348;2022-09-01T07:06:40;6.35;;;2.97;;
65581;SDS011;52231;40.090;18.348;2022-09-01T07:09:29;5.97;;;2.95;;
65581;SDS011;52231;40.090;18.348;2022-09-01T07:12:22;7.28;;;2.60;;
65581;SDS011;52231;40.090;18.348;2022-09-01T07:14:53;6.68;;;2.90;;
65581;SDS011;52231;40.090;18.348;2022-09-01T07:17:44;7.15;;;3.00;;
65581;SDS011;52231;40.090;18.348;2022-09-01T07:20:18;6.70;;;3.10;;
65581;SDS011;52231;40.090;18.348;2022-09-01T07:22:51;5.82;;;3.20;;
65581;SDS011;52231;40.090;18.348;2022-09-01T07:25:39;6.88;;;3.03;;
65581;SDS011;52231;40.090;18.348;2022-09-01T07:28:33;8.77;;;3.05;;
65581;SDS011;52231;40.090;18.348;2022-09-01T07:31:03;6.20;;;2.90;;
65581;SDS011;52231;40.090;18.348;2022-09-01T07:33:54;7.63;;;3.17;;
65581;SDS011;52231;40.090;18.348;2022-09-01T07:36:46;7.95;;;3.20;;
65581;SDS011;52231;40.090;18.348;2022-09-01T07:39:37;6.50;;;2.95;;
65581;SDS011;52231;40.090;18.348;2022-09-01T07:42:27;7.03;;;3.30;;
65581;SDS011;52231;40.090;18.348;2022-09-01T07:45:35;9.68;;;3.30;;
65581;SDS011;52231;40.090;18.348;2022-09-01T07:48:18;7.75;;;3.10;;
65581;SDS011;52231;40.090;18.348;2022-09-01T07:51:10;6.38;;;2.65;;
65581;SDS011;52231;40.090;18.348;2022-09-01T07:53:59;6.65;;;2.70;;
65581;SDS011;52231;40.090;18.348;2022-09-01T07:56:28;6.93;;;3.08;;
65581;SDS011;52231;40.090;18.348;2022-09-01T07:58:57;7.55;;;2.70;;
65581;SDS011;52231;40.090;18.348;2022-09-01T08:01:26;4.60;;;2.72;;
65581;SDS011;52231;40.090;18.348;2022-09-01T08:03:57;5.38;;;2.50;;
65581;SDS011;52231;40.090;18.348;2022-09-01T08:06:27;5.28;;;2.42;;
65581;SDS011;52231;40.090;18.348;2022-09-01T08:09:04;5.05;;;2.60;;
65581;SDS011;52231;40.090;18.348;2022-09-01T08:11:52;6.78;;;2.63;;
65581;SDS011;52231;40.090;18.348;2022-09-01T08:14:30;7.47;;;2.83;;
65581;SDS011;52231;40.090;18.348;2022-09-01T08:17:01;5.25;;;2.35;;
65581;SDS011;52231;40.090;18.348;2022-09-01T08:19:49;4.97;;;2.60;;
65581;SDS011;52231;40.090;18.348;2022-09-01T08:22:39;5.88;;;2.63;;
65581;SDS011;52231;40.090;18.348;2022-09-01T08:25:30;4.50;;;2.42;;
65581;SDS011;52231;40.090;18.348;2022-09-01T08:28:01;5.03;;;2.47;;
65581;SDS011;52231;40.090;18.348;2022-09-01T08:30:30;6.28;;;2.72;;
65581;SDS011;52231;40.090;18.348;2022-09-01T08:32:59;8.90;;;2.80;;
65581;SDS011;52231;40.090;18.348;2022-09-01T08:35:40;6.18;;;2.60;;
65581;SDS011;52231;40.090;18.348;2022-09-01T08:38:09;3.90;;;2.53;;
65581;SDS011;52231;40.090;18.348;2022-09-01T08:40:39;6.20;;;2.70;;
65581;SDS011;52231;40.090;18.348;2022-09-01T08:45:49;7.40;;;2.70;;
65581;SDS011;52231;40.090;18.348;2022-09-01T08:48:39;6.75;;;2.80;;
65581;SDS011;52231;40.090;18.348;2022-09-01T08:51:45;6.88;;;2.80;;
65581;SDS011;52231;40.090;18.348;2022-09-01T08:57:05;7.45;;;2.75;;
65581;SDS011;52231;40.090;18.348;2022-09-01T09:00:09;7.70;;;3.38;;
65581;SDS011;52231;40.090;18.348;2022-09-01T09:05:42;9.15;;;2.42;;
65581;SDS011;52231;40.090;18.348;2022-09-01T09:11:17;6.38;;;2.30;;
65581;SDS011;52231;40.090;18.348;2022-09-01T09:16:53;6.38;;;2.35;;
65581;SDS011;52231;40.090;18.348;2022-09-01T09:53:39;10.32;;;3.55;;
65581;SDS011;52231;40.090;18.348;2022-09-01T09:56:18;11.02;;;3.58;;
65581;SDS011;52231;40.090;18.348;2022-09-01T09:58:53;7.30;;;3.33;;
65581;SDS011;52231;40.090;18.348;2022-09-01T10:03:51;8.02;;;3.53;;
65581;SDS011;52231;40.090;18.348;2022-09-01T10:09:15;7.65;;;3.13;;
65581;SDS011;52231;40.090;18.348;2022-09-01T10:11:48;8.27;;;3.75;;
65581;SDS011;52231;40.090;18.348;2022-09-01T10:14:20;10.23;;;3.97;;
65581;SDS011;52231;40.090;18.348;2022-09-01T10:17:14;10.93;;;4.63;;
65581;SDS011;52231;40.090;18.348;2022-09-01T10:19:52;10.10;;;2.92;;
65581;SDS011;52231;40.090;18.348;2022-09-01T10:22:31;6.85;;;3.67;;
65581;SDS011;52231;40.090;18.348;2022-09-01T10:25:02;6.05;;;3.00;;
65581;SDS011;52231;40.090;18.348;2022-09-01T10:27:39;7.40;;;3.15;;
65581;SDS011;52231;40.090;18.348;2022-09-01T10:30:13;7.15;;;3.00;;
65581;SDS011;52231;40.090;18.348;2022-09-01T10:32:55;7.72;;;3.17;;
65581;SDS011;52231;40.090;18.348;2022-09-01T10:35:52;8.27;;;3.28;;
65581;SDS011;52231;40.090;18.348;2022-09-01T10:38:26;5.40;;;2.92;;
65581;SDS011;52231;40.090;18.348;2022-09-01T10:40:56;5.75;;;2.72;;
65581;SDS011;52231;40.090;18.348;2022-09-01T10:43:45;7.20;;;2.95;;
65581;SDS011;52231;40.090;18.348;2022-09-01T10:49:11;7.68;;;3.10;;
65581;SDS011;52231;40.090;18.348;2022-09-01T10:51:51;8.57;;;3.22;;
65581;SDS011;52231;40.090;18.348;2022-09-01T10:57:34;10.60;;;3.40;;
65581;SDS011;52231;40.090;18.348;2022-09-01T11:06:01;6.32;;;3.03;;
65581;SDS011;52231;40.090;18.348;2022-09-01T11:08:41;9.07;;;3.20;;
65581;SDS011;52231;40.090;18.348;2022-09-01T11:11:24;6.45;;;3.17;;
65581;SDS011;52231;40.090;18.348;2022-09-01T11:14:19;4.68;;;2.55;;
65581;SDS011;52231;40.090;18.348;2022-09-01T11:17:23;8.80;;;2.97;;
65581;SDS011;52231;40.090;18.348;2022-09-01T11:19:59;5.93;;;2.55;;
65581;SDS011;52231;40.090;18.348;2022-09-01T11:30:55;9.20;;;2.78;;
65581;SDS011;52231;40.090;18.348;2022-09-01T11:44:23;4.30;;;2.33;;
65581;SDS011;52231;40.090;18.348;2022-09-01T11:46:58;6.03;;;2.40;;
65581;SDS011;52231;40.090;18.348;2022-09-01T11:49:36;4.13;;;2.38;;
65581;SDS011;52231;40.090;18.348;2022-09-01T11:52:07;5.13;;;2.45;;
65581;SDS011;52231;40.090;18.348;2022-09-01T11:54:42;5.40;;;2.53;;
65581;SDS011;52231;40.090;18.348;2022-09-01T11:57:55;4.82;;;2.30;;
65581;SDS011;52231;40.090;18.348;2022-09-01T12:00:09;5.55;;;2.42;;
65581;SDS011;52231;40.090;18.348;2022-09-01T12:02:45;4.75;;;2.20;;
65581;SDS011;52231;40.090;18.348;2022-09-01T12:05:35;4.28;;;2.05;;
65581;SDS011;52231;40.090;18.348;2022-09-01T12:08:14;5.70;;;2.20;;
65581;SDS011;52231;40.090;18.348;2022-09-01T12:10:45;5.72;;;2.30;;
65581;SDS011;52231;40.090;18.348;2022-09-01T12:13:19;4.53;;;2.22;;
65581;SDS011;52231;40.090;18.348;2022-09-01T12:15:57;7.60;;;3.22;;
65581;SDS011;52231;40.090;18.348;2022-09-01T12:18:46;3.38;;;2.13;;
65581;SDS011;52231;40.090;18.348;2022-09-01T12:21:20;5.15;;;2.22;;
65581;SDS011;52231;40.090;18.348;2022-09-01T12:23:48;5.53;;;2.45;;
65581;SDS011;52231;40.090;18.348;2022-09-01T12:26:18;6.65;;;2.42;;
65581;SDS011;52231;40.090;18.348;2022-09-01T12:29:12;3.63;;;2.17;;
65581;SDS011;52231;40.090;18.348;2022-09-01T12:31:41;3.83;;;1.95;;
65581;SDS011;52231;40.090;18.348;2022-09-01T12:37:10;3.88;;;2.30;;
65581;SDS011;52231;40.090;18.348;2022-09-01T12:39:49;4.78;;;2.20;;
65581;SDS011;52231;40.090;18.348;2022-09-01T12:45:09;4.40;;;2.00;;
65581;SDS011;52231;40.090;18.348;2022-09-01T12:47:43;4.18;;;1.92;;
65581;SDS011;52231;40.090;18.348;2022-09-01T12:55:39;5.50;;;1.92;;
65581;SDS011;52231;40.090;18.348;2022-09-01T12:58:18;5.90;;;1.92;;
65581;SDS011;52231;40.090;18.348;2022-09-01T13:01:05;4.13;;;2.20;;
65581;SDS011;52231;40.090;18.348;2022-09-01T13:04:04;5.25;;;2.30;;
65581;SDS011;52231;40.090;18.348;2022-09-01T13:06:34;7.75;;;2.60;;
65581;SDS011;52231;40.090;18.348;2022-09-01T13:09:02;5.28;;;2.20;;
65581;SDS011;52231;40.090;18.348;2022-09-01T13:11:31;3.75;;;2.00;;
65581;SDS011;52231;40.090;18.348;2022-09-01T13:14:20;5.43;;;2.22;;
65581;SDS011;52231;40.090;18.348;2022-09-01T13:16:49;4.93;;;1.92;;
65581;SDS011;52231;40.090;18.348;2022-09-01T13:19:17;5.70;;;2.30;;
65581;SDS011;52231;40.090;18.348;2022-09-01T13:21:53;9.32;;;2.30;;
65581;SDS011;52231;40.090;18.348;2022-09-01T13:24:21;4.97;;;2.28;;
65581;SDS011;52231;40.090;18.348;2022-09-01T13:26:54;5.82;;;2.38;;
65581;SDS011;52231;40.090;18.348;2022-09-01T13:29:43;5.97;;;2.45;;
65581;SDS011;52231;40.090;18.348;2022-09-01T13:32:13;4.57;;;2.17;;
65581;SDS011;52231;40.090;18.348;2022-09-01T13:34:43;5.18;;;2.05;;
65581;SDS011;52231;40.090;18.348;2022-09-01T13:37:12;7.68;;;2.53;;
65581;SDS011;52231;40.090;18.348;2022-09-01T13:39:40;7.50;;;2.60;;
65581;SDS011;52231;40.090;18.348;2022-09-01T13:42:09;6.68;;;2.67;;
65581;SDS011;52231;40.090;18.348;2022-09-01T13:44:37;8.60;;;2.78;;
65581;SDS011;52231;40.090;18.348;2022-09-01T13:47:05;5.60;;;2.17;;
65581;SDS011;52231;40.090;18.348;2022-09-01T13:49:54;6.10;;;2.20;;
65581;SDS011;52231;40.090;18.348;2022-09-01T13:52:39;7.00;;;2.33;;
65581;SDS011;52231;40.090;18.348;2022-09-01T13:55:28;3.97;;;2.10;;
65581;SDS011;52231;40.090;18.348;2022-09-01T13:57:59;4.05;;;1.70;;
65581;SDS011;52231;40.090;18.348;2022-09-01T14:00:29;3.38;;;1.85;;
65581;SDS011;52231;40.090;18.348;2022-09-01T14:03:00;4.75;;;1.73;;
65581;SDS011;52231;40.090;18.348;2022-09-01T14:05:32;8.63;;;2.28;;
65581;SDS011;52231;40.090;18.348;2022-09-01T14:08:03;6.82;;;2.22;;
65581;SDS011;52231;40.090;18.348;2022-09-01T14:10:35;5.07;;;2.13;;
65581;SDS011;52231;40.090;18.348;2022-09-01T14:13:06;4.45;;;2.08;;
65581;SDS011;52231;40.090;18.348;2022-09-01T14:15:36;4.95;;;2.53;;
65581;SDS011;52231;40.090;18.348;2022-09-01T14:18:05;5.35;;;2.10;;
65581;SDS011;52231;40.090;18.348;2022-09-01T14:20:35;10.32;;;2.40;;
65581;SDS011;52231;40.090;18.348;2022-09-01T14:23:07;5.72;;;2.05;;
65581;SDS011;52231;40.090;18.348;2022-09-01T14:25:40;4.97;;;2.30;;
65581;SDS011;52231;40.090;18.348;2022-09-01T14:28:14;3.97;;;2.08;;
65581;SDS011;52231;40.090;18.348;2022-09-01T14:30:43;5.50;;;2.50;;
65581;SDS011;52231;40.090;18.348;2022-09-01T14:33:12;5.25;;;2.25;;
65581;SDS011;52231;40.090;18.348;2022-09-01T14:35:42;6.50;;;2.00;;
65581;SDS011;52231;40.090;18.348;2022-09-01T14:38:13;5.45;;;2.00;;
65581;SDS011;52231;40.090;18.348;2022-09-01T14:40:42;3.78;;;1.98;;
65581;SDS011;52231;40.090;18.348;2022-09-01T14:43:14;4.13;;;1.90;;
65581;SDS011;52231;40.090;18.348;2022-09-01T14:45:43;6.35;;;1.98;;
65581;SDS011;52231;40.090;18.348;2022-09-01T14:48:15;5.78;;;2.10;;
65581;SDS011;52231;40.090;18.348;2022-09-01T14:50:46;3.95;;;1.83;;
65581;SDS011;52231;40.090;18.348;2022-09-01T14:53:15;14.77;;;3.40;;
65581;SDS011;52231;40.090;18.348;2022-09-01T14:55:43;13.13;;;3.40;;
65581;SDS011;52231;40.090;18.348;2022-09-01T14:58:12;8.55;;;2.72;;
65581;SDS011;52231;40.090;18.348;2022-09-01T15:00:41;7.60;;;2.47;;
65581;SDS011;52231;40.090;18.348;2022-09-01T15:03:10;5.97;;;2.38;;
65581;SDS011;52231;40.090;18.348;2022-09-01T15:05:38;7.00;;;2.50;;
65581;SDS011;52231;40.090;18.348;2022-09-01T15:08:07;5.43;;;2.40;;
65581;SDS011;52231;40.090;18.348;2022-09-01T15:10:38;4.03;;;2.05;;
65581;SDS011;52231;40.090;18.348;2022-09-01T15:13:06;7.55;;;2.05;;
65581;SDS011;52231;40.090;18.348;2022-09-01T15:15:36;4.50;;;1.90;;
65581;SDS011;52231;40.090;18.348;2022-09-01T15:18:06;4.20;;;2.17;;
65581;SDS011;52231;40.090;18.348;2022-09-01T15:20:37;5.18;;;2.17;;
65581;SDS011;52231;40.090;18.348;2022-09-01T15:23:14;4.38;;;2.03;;
65581;SDS011;52231;40.090;18.348;2022-09-01T15:25:51;4.88;;;2.10;;
65581;SDS011;52231;40.090;18.348;2022-09-01T15:28:21;5.60;;;1.88;;
65581;SDS011;52231;40.090;18.348;2022-09-01T15:30:50;5.40;;;2.03;;
65581;SDS011;52231;40.090;18.348;2022-09-01T15:33:39;5.82;;;2.10;;
65581;SDS011;52231;40.090;18.348;2022-09-01T15:36:07;7.63;;;1.95;;
65581;SDS011;52231;40.090;18.348;2022-09-01T15:38:41;6.78;;;1.98;;
65581;SDS011;52231;40.090;18.348;2022-09-01T15:41:14;4.82;;;1.73;;
65581;SDS011;52231;40.090;18.348;2022-09-01T15:43:46;5.47;;;2.00;;
65581;SDS011;52231;40.090;18.348;2022-09-01T15:46:18;4.53;;;2.08;;
65581;SDS011;52231;40.090;18.348;2022-09-01T15:48:47;4.35;;;1.60;;
65581;SDS011;52231;40.090;18.348;2022-09-01T15:56:19;4.47;;;1.80;;
65581;SDS011;52231;40.090;18.348;2022-09-01T15:58:48;4.88;;;1.80;;
65581;SDS011;52231;40.090;18.348;2022-09-01T16:01:26;5.20;;;2.00;;
65581;SDS011;52231;40.090;18.348;2022-09-01T16:03:56;5.45;;;2.13;;
65581;SDS011;52231;40.090;18.348;2022-09-01T16:06:24;6.40;;;2.20;;
65581;SDS011;52231;40.090;18.348;2022-09-01T16:08:53;6.50;;;1.92;;
65581;SDS011;52231;40.090;18.348;2022-09-01T16:11:21;6.65;;;1.98;;
65581;SDS011;52231;40.090;18.348;2022-09-01T16:13:50;7.05;;;1.90;;
65581;SDS011;52231;40.090;18.348;2022-09-01T16:24:33;7.53;;;2.10;;
65581;SDS011;52231;40.090;18.348;2022-09-01T16:27:11;8.02;;;2.03;;
65581;SDS011;52231;40.090;18.348;2022-09-01T16:29:50;5.93;;;1.85;;
65581;SDS011;52231;40.090;18.348;2022-09-01T16:32:22;4.00;;;1.90;;
65581;SDS011;52231;40.090;18.348;2022-09-01T16:34:51;8.27;;;2.20;;
65581;SDS011;52231;40.090;18.348;2022-09-01T16:43:35;8.07;;;2.60;;
65581;SDS011;52231;40.090;18.348;2022-09-01T16:49:08;4.85;;;2.00;;
65581;SDS011;52231;40.090;18.348;2022-09-01T17:07:55;7.10;;;2.25;;
65581;SDS011;52231;40.090;18.348;2022-09-01T17:16:14;4.80;;;1.98;;
65581;SDS011;52231;40.090;18.348;2022-09-01T17:19:24;4.53;;;2.35;;
65581;SDS011;52231;40.090;18.348;2022-09-01T17:22:28;8.20;;;2.60;;
65581;SDS011;52231;40.090;18.348;2022-09-01T17:25:51;9.35;;;2.63;;
65581;SDS011;52231;40.090;18.348;2022-09-01T17:27:55;7.13;;;2.40;;
65581;SDS011;52231;40.090;18.348;2022-09-01T17:30:29;7.85;;;2.45;;
65581;SDS011;52231;40.090;18.348;2022-09-01T17:33:05;8.13;;;2.47;;
65581;SDS011;52231;40.090;18.348;2022-09-01T17:41:22;10.60;;;2.67;;
65581;SDS011;52231;40.090;18.348;2022-09-01T17:44:08;11.13;;;2.47;;
65581;SDS011;52231;40.090;18.348;2022-09-01T17:51:57;8.25;;;1.90;;
65581;SDS011;52231;40.090;18.348;2022-09-01T17:54:57;8.93;;;1.90;;
65581;SDS011;52231;40.090;18.348;2022-09-01T17:57:38;9.20;;;1.98;;
65581;SDS011;52231;40.090;18.348;2022-09-01T18:00:18;11.63;;;2.10;;
65581;SDS011;52231;40.090;18.348;2022-09-01T18:05:47;6.45;;;1.92;;
65581;SDS011;52231;40.090;18.348;2022-09-01T18:08:30;11.48;;;1.90;;
65581;SDS011;52231;40.090;18.348;2022-09-01T18:19:36;5.70;;;2.00;;
65581;SDS011;52231;40.090;18.348;2022-09-01T18:22:07;5.93;;;1.77;;
65581;SDS011;52231;40.090;18.348;2022-09-01T18:25:02;8.73;;;1.80;;
65581;SDS011;52231;40.090;18.348;2022-09-01T18:27:34;9.10;;;2.25;;
65581;SDS011;52231;40.090;18.348;2022-09-01T18:30:03;8.55;;;2.00;;